createdAt,value
2022-08-27T00:00:15.241Z,6.90
2022-08-27T00:02:42.962Z,7.53
2022-08-27T00:05:13.885Z,7.82
2022-08-27T00:07:41.636Z,8.20
2022-08-27T00:10:09.877Z,8.13
2022-08-27T00:12:37.565Z,8.02
2022-08-27T00:15:06.448Z,8.30
2022-08-27T00:17:34.193Z,8.25
2022-08-27T00:20:01.832Z,8.68
2022-08-27T00:22:29.143Z,9.13
2022-08-27T00:24:56.350Z,8.48
2022-08-27T00:27:23.543Z,8.60
2022-08-27T00:29:51.026Z,8.80
2022-08-27T00:32:18.419Z,8.48
2022-08-27T00:34:45.703Z,9.13
2022-08-27T00:37:13.111Z,8.02
2022-08-27T00:39:40.588Z,7.72
2022-08-27T00:42:07.823Z,8.32
2022-08-27T00:44:35.241Z,8.07
2022-08-27T00:47:05.589Z,7.30
2022-08-27T00:49:42.048Z,8.02
2022-08-27T00:52:29.496Z,8.30
2022-08-27T00:55:09.120Z,7.78
2022-08-27T00:57:40.751Z,7.97
2022-08-27T01:00:10.031Z,8.20
2022-08-27T01:02:37.247Z,7.32
2022-08-27T01:05:09.213Z,8.10
2022-08-27T01:07:38.758Z,7.88
2022-08-27T01:10:07.521Z,7.78
2022-08-27T01:12:35.263Z,7.38
2022-08-27T01:15:06.532Z,8.23
2022-08-27T01:17:34.930Z,8.02
2022-08-27T01:20:04.459Z,7.10
2022-08-27T01:22:43.797Z,7.75
2022-08-27T01:25:13.172Z,7.95
2022-08-27T01:27:41.599Z,7.85
2022-08-27T01:30:10.401Z,7.45
2022-08-27T01:32:37.667Z,7.75
2022-08-27T01:35:06.469Z,7.55
2022-08-27T01:37:35.063Z,8.20
2022-08-27T01:40:02.659Z,7.15
2022-08-27T01:42:34.220Z,8.02
2022-08-27T01:45:05.722Z,7.45
2022-08-27T01:47:33.244Z,7.15
2022-08-27T01:50:00.558Z,7.50
2022-08-27T01:52:28.946Z,7.72
2022-08-27T01:54:56.314Z,7.63
2022-08-27T01:57:26.021Z,8.13
2022-08-27T01:59:56.376Z,7.57
2022-08-27T02:02:23.669Z,7.95
2022-08-27T02:04:52.067Z,7.32
2022-08-27T02:07:19.518Z,7.10
2022-08-27T02:09:46.786Z,7.88
2022-08-27T02:12:13.995Z,7.43
2022-08-27T02:14:41.449Z,7.07
2022-08-27T02:17:08.654Z,8.18
2022-08-27T02:19:35.836Z,7.93
2022-08-27T02:22:03.204Z,7.72
2022-08-27T02:24:30.488Z,6.53
2022-08-27T02:26:58.041Z,6.40
2022-08-27T02:29:25.836Z,7.35
2022-08-27T02:31:53.062Z,6.63
2022-08-27T02:34:20.267Z,6.75
2022-08-27T02:36:47.769Z,6.47
2022-08-27T02:39:15.073Z,6.93
2022-08-27T02:41:42.276Z,7.00
2022-08-27T02:44:11.264Z,6.78
2022-08-27T02:46:41.669Z,7.30
2022-08-27T02:49:09.944Z,6.13
2022-08-27T02:51:37.608Z,6.80
2022-08-27T02:54:06.334Z,6.78
2022-08-27T02:56:36.938Z,6.70
2022-08-27T02:59:04.331Z,7.75
2022-08-27T03:01:31.605Z,6.85
2022-08-27T03:03:58.935Z,6.93
2022-08-27T03:06:26.266Z,6.78
2022-08-27T03:08:53.740Z,6.90
2022-08-27T03:11:23.559Z,6.95
2022-08-27T03:13:50.996Z,6.78
2022-08-27T03:16:18.273Z,6.97
2022-08-27T03:18:45.948Z,6.30
2022-08-27T03:21:20.963Z,6.15
2022-08-27T03:23:48.748Z,6.75
2022-08-27T03:26:16.220Z,6.80
2022-08-27T03:28:43.616Z,6.55
2022-08-27T03:31:15.525Z,7.20
2022-08-27T03:33:43.693Z,6.90
2022-08-27T03:36:10.896Z,7.00
2022-08-27T03:38:38.537Z,7.10
2022-08-27T03:41:06.580Z,7.00
2022-08-27T03:43:33.780Z,6.05
2022-08-27T03:46:02.488Z,6.93
2022-08-27T03:48:30.725Z,6.47
2022-08-27T03:50:57.958Z,6.63
2022-08-27T03:53:26.010Z,6.40
2022-08-27T03:55:53.373Z,6.13
2022-08-27T03:58:20.598Z,6.97
2022-08-27T04:00:48.526Z,6.57
2022-08-27T04:03:16.144Z,7.32
2022-08-27T04:05:45.445Z,7.05
2022-08-27T04:08:13.457Z,6.60
2022-08-27T04:10:43.860Z,6.25
2022-08-27T04:13:11.108Z,6.28
2022-08-27T04:15:42.596Z,6.40
2022-08-27T04:18:10.114Z,6.18
2022-08-27T04:20:37.427Z,6.38
2022-08-27T04:23:05.095Z,6.70
2022-08-27T04:25:33.140Z,6.03
2022-08-27T04:28:00.378Z,6.03
2022-08-27T04:30:27.652Z,6.40
2022-08-27T04:32:54.967Z,5.82
2022-08-27T04:35:22.174Z,6.22
2022-08-27T04:37:49.410Z,6.18
2022-08-27T04:40:17.111Z,6.18
2022-08-27T04:42:44.468Z,6.30
2022-08-27T04:45:11.820Z,6.07
2022-08-27T04:47:39.145Z,6.28
2022-08-27T04:50:07.028Z,6.30
2022-08-27T04:52:40.927Z,5.57
2022-08-27T04:55:08.702Z,6.32
2022-08-27T04:57:37.969Z,6.57
2022-08-27T05:00:07.376Z,6.53
2022-08-27T05:02:34.750Z,5.53
2022-08-27T05:05:01.991Z,5.65
2022-08-27T05:07:29.319Z,5.93
2022-08-27T05:09:56.582Z,5.93
2022-08-27T05:12:23.803Z,5.97
2022-08-27T05:14:50.987Z,5.80
2022-08-27T05:17:18.250Z,5.93
2022-08-27T05:19:45.474Z,6.22
2022-08-27T05:22:12.711Z,6.38
2022-08-27T05:24:39.959Z,6.50
2022-08-27T05:27:07.132Z,6.13
2022-08-27T05:29:37.054Z,5.90
2022-08-27T05:32:05.182Z,6.03
2022-08-27T05:34:32.424Z,6.00
2022-08-27T05:36:59.644Z,5.40
2022-08-27T05:39:26.983Z,6.32
2022-08-27T05:41:57.106Z,5.72
2022-08-27T05:44:41.415Z,5.90
2022-08-27T05:47:09.304Z,5.90
2022-08-27T05:49:36.552Z,5.88
2022-08-27T05:52:03.924Z,6.50
2022-08-27T05:54:31.318Z,6.38
2022-08-27T05:56:58.510Z,6.28
2022-08-27T05:59:44.431Z,6.25
2022-08-27T06:02:11.739Z,5.72
2022-08-27T06:04:38.996Z,6.05
2022-08-27T06:07:09.269Z,6.43
2022-08-27T06:09:36.503Z,5.35
2022-08-27T06:12:03.925Z,5.70
2022-08-27T06:14:31.431Z,6.05
2022-08-27T06:17:00.961Z,5.75
2022-08-27T06:19:28.168Z,6.22
2022-08-27T06:22:00.295Z,6.13
2022-08-27T06:24:36.980Z,5.60
2022-08-27T06:27:04.427Z,6.20
2022-08-27T06:29:31.941Z,5.78
2022-08-27T06:31:59.124Z,5.25
2022-08-27T06:34:26.508Z,5.40
2022-08-27T06:36:54.394Z,5.70
2022-08-27T06:39:21.671Z,5.53
2022-08-27T06:41:50.449Z,5.00
2022-08-27T06:44:17.709Z,5.72
2022-08-27T06:46:45.103Z,4.97
2022-08-27T06:49:13.460Z,5.57
2022-08-27T06:51:41.225Z,4.88
2022-08-27T06:54:10.495Z,5.45
2022-08-27T06:56:38.054Z,5.43
2022-08-27T06:59:11.687Z,5.10
2022-08-27T07:01:41.651Z,5.50
2022-08-27T07:04:10.383Z,5.20
2022-08-27T07:06:39.140Z,6.00
2022-08-27T07:09:07.156Z,5.63
2022-08-27T07:11:34.383Z,5.40
2022-08-27T07:14:01.673Z,5.45
2022-08-27T07:16:29.615Z,6.10
2022-08-27T07:19:00.992Z,6.00
2022-08-27T07:21:31.124Z,5.60
2022-08-27T07:23:59.774Z,6.80
2022-08-27T07:26:27.226Z,5.70
2022-08-27T07:28:54.503Z,5.43
2022-08-27T07:31:22.837Z,5.38
2022-08-27T07:33:52.859Z,5.32
2022-08-27T07:36:21.249Z,5.45
2022-08-27T07:38:48.522Z,6.25
2022-08-27T07:41:31.287Z,5.70
2022-08-27T07:44:20.446Z,5.50
2022-08-27T07:46:49.041Z,5.65
2022-08-27T07:49:19.587Z,5.97
2022-08-27T07:51:47.092Z,6.70
2022-08-27T07:54:14.645Z,6.82
2022-08-27T07:56:42.383Z,6.60
2022-08-27T07:59:11.847Z,6.82
2022-08-27T08:01:39.377Z,6.60
2022-08-27T08:04:06.602Z,6.45
2022-08-27T08:06:38.217Z,6.32
2022-08-27T08:09:06.523Z,6.30
2022-08-27T08:11:36.404Z,6.55
2022-08-27T08:14:03.628Z,5.95
2022-08-27T08:16:31.864Z,5.93
2022-08-27T08:19:00.367Z,5.93
2022-08-27T08:21:27.751Z,5.57
2022-08-27T08:23:55.098Z,6.45
2022-08-27T08:26:23.159Z,6.35
2022-08-27T08:28:50.392Z,6.00
2022-08-27T08:31:17.808Z,6.00
2022-08-27T08:33:46.975Z,6.40
2022-08-27T08:36:15.571Z,6.85
2022-08-27T08:38:43.766Z,6.15
2022-08-27T08:41:34.436Z,6.05
2022-08-27T08:44:05.688Z,6.15
2022-08-27T08:46:47.533Z,6.65
2022-08-27T08:49:35.183Z,6.53
2022-08-27T08:52:30.608Z,6.05
2022-08-27T08:55:03.654Z,6.43
2022-08-27T08:57:37.417Z,6.75
2022-08-27T09:00:10.085Z,6.60
2022-08-27T09:02:37.272Z,6.70
2022-08-27T09:05:06.148Z,6.55
2022-08-27T09:07:36.985Z,6.65
2022-08-27T09:10:11.135Z,6.30
2022-08-27T09:12:38.516Z,6.25
2022-08-27T09:15:14.148Z,6.30
2022-08-27T09:17:42.288Z,6.47
2022-08-27T09:20:13.209Z,6.55
2022-08-27T09:22:59.456Z,6.60
2022-08-27T09:25:29.414Z,6.20
2022-08-27T09:27:58.144Z,5.18
2022-08-27T09:30:30.698Z,5.75
2022-08-27T09:32:58.260Z,5.88
2022-08-27T09:35:27.003Z,6.15
2022-08-27T09:37:57.913Z,5.32
2022-08-27T09:40:33.539Z,5.57
2022-08-27T09:43:08.326Z,5.20
2022-08-27T09:45:36.114Z,5.63
2022-08-27T09:48:07.517Z,6.22
2022-08-27T09:50:47.125Z,5.60
2022-08-27T09:53:20.826Z,6.30
2022-08-27T09:55:49.241Z,6.30
2022-08-27T09:58:19.445Z,6.15
2022-08-27T10:00:47.495Z,5.55
2022-08-27T10:03:15.069Z,5.97
2022-08-27T10:05:50.720Z,7.28
2022-08-27T10:08:18.264Z,5.63
2022-08-27T10:10:53.177Z,5.50
2022-08-27T10:13:41.488Z,6.15
2022-08-27T10:16:28.557Z,5.17
2022-08-27T10:19:13.904Z,6.72
2022-08-27T10:21:45.509Z,6.63
2022-08-27T10:24:20.453Z,6.15
2022-08-27T10:27:09.837Z,4.85
2022-08-27T10:29:42.354Z,5.45
2022-08-27T10:32:16.654Z,5.55
2022-08-27T10:34:54.516Z,5.20
2022-08-27T10:37:40.685Z,5.43
2022-08-27T10:40:14.719Z,5.72
2022-08-27T10:42:57.679Z,5.25
2022-08-27T10:45:48.693Z,5.97
2022-08-27T10:48:15.886Z,6.25
2022-08-27T10:50:45.902Z,5.82
2022-08-27T10:53:21.241Z,5.82
2022-08-27T10:55:54.095Z,6.40
2022-08-27T10:58:36.541Z,6.45
2022-08-27T11:01:06.951Z,6.10
2022-08-27T11:03:34.219Z,6.00
2022-08-27T11:06:04.294Z,5.82
2022-08-27T11:08:40.966Z,5.90
2022-08-27T11:11:51.762Z,5.35
2022-08-27T11:14:02.416Z,5.07
2022-08-27T11:16:46.006Z,4.68
2022-08-27T11:19:23.951Z,4.68
2022-08-27T11:22:03.436Z,5.18
2022-08-27T11:24:36.409Z,5.00
2022-08-27T11:27:05.585Z,4.80
2022-08-27T11:29:37.534Z,4.45
2022-08-27T11:32:04.901Z,4.72
2022-08-27T11:34:42.094Z,4.80
2022-08-27T11:37:09.283Z,4.88
2022-08-27T11:39:39.251Z,4.95
2022-08-27T11:42:15.748Z,4.47
2022-08-27T11:44:47.161Z,4.70
2022-08-27T11:47:16.616Z,4.80
2022-08-27T11:49:46.088Z,4.90
2022-08-27T11:52:13.920Z,4.50
2022-08-27T11:54:49.007Z,4.72
2022-08-27T11:57:17.869Z,4.45
2022-08-27T11:59:45.135Z,5.32
2022-08-27T12:02:29.636Z,4.45
2022-08-27T12:05:10.855Z,4.57
2022-08-27T12:07:40.099Z,4.45
2022-08-27T12:10:17.233Z,4.85
2022-08-27T12:12:52.538Z,4.80
2022-08-27T12:15:32.914Z,5.30
2022-08-27T12:18:06.450Z,4.60
2022-08-27T12:20:46.471Z,4.70
2022-08-27T12:23:40.162Z,5.25
2022-08-27T12:26:28.172Z,4.30
2022-08-27T12:29:14.519Z,3.92
2022-08-27T12:31:43.470Z,3.70
2022-08-27T12:34:19.668Z,3.58
2022-08-27T12:36:52.546Z,3.97
2022-08-27T12:39:24.907Z,3.38
2022-08-27T12:41:52.135Z,3.50
2022-08-27T12:44:27.317Z,3.53
2022-08-27T12:47:02.851Z,3.50
2022-08-27T12:49:55.091Z,3.97
2022-08-27T12:52:26.210Z,4.25
2022-08-27T12:55:01.631Z,3.25
2022-08-27T12:57:41.551Z,3.83
2022-08-27T13:00:19.042Z,3.70
2022-08-27T13:03:06.954Z,3.92
2022-08-27T13:05:42.519Z,4.03
2022-08-27T13:08:23.164Z,4.50
2022-08-27T13:10:51.235Z,4.75
2022-08-27T13:13:20.221Z,5.20
2022-08-27T13:15:49.182Z,4.97
2022-08-27T13:18:16.890Z,4.20
2022-08-27T13:20:47.379Z,3.75
2022-08-27T13:23:27.392Z,3.90
2022-08-27T13:25:56.334Z,4.40
2022-08-27T13:28:25.244Z,4.28
2022-08-27T13:30:52.753Z,4.18
2022-08-27T13:33:28.517Z,3.90
2022-08-27T13:35:57.789Z,4.53
2022-08-27T13:38:27.017Z,4.45
2022-08-27T13:41:01.970Z,4.60
2022-08-27T13:43:35.408Z,4.45
2022-08-27T13:46:05.659Z,4.80
2022-08-27T13:51:00.006Z,4.22
2022-08-27T13:53:50.296Z,4.80
2022-08-27T13:56:26.623Z,4.20
2022-08-27T13:58:53.959Z,3.85
2022-08-27T14:01:31.289Z,4.43
2022-08-27T14:04:05.066Z,4.55
2022-08-27T14:06:39.673Z,4.50
2022-08-27T14:09:12.719Z,4.32
2022-08-27T14:11:39.998Z,4.00
2022-08-27T14:14:07.400Z,4.43
2022-08-27T14:16:35.431Z,4.20
2022-08-27T14:19:10.589Z,3.95
2022-08-27T14:21:39.721Z,3.70
2022-08-27T14:24:07.817Z,4.50
2022-08-27T14:26:35.428Z,4.15
2022-08-27T14:29:02.754Z,4.28
2022-08-27T14:31:38.963Z,4.70
2022-08-27T14:34:08.488Z,4.40
2022-08-27T14:36:37.904Z,4.57
2022-08-27T14:39:05.645Z,4.20
2022-08-27T14:41:33.601Z,4.57
2022-08-27T14:44:00.863Z,4.97
2022-08-27T14:46:29.443Z,4.68
2022-08-27T14:48:57.807Z,4.13
2022-08-27T14:51:26.495Z,4.53
2022-08-27T14:53:54.350Z,4.68
2022-08-27T14:56:21.965Z,4.55
2022-08-27T14:58:49.446Z,5.10
2022-08-27T15:01:18.248Z,4.78
2022-08-27T15:03:47.849Z,5.70
2022-08-27T15:06:15.707Z,5.60
2022-08-27T15:08:44.695Z,5.38
2022-08-27T15:11:20.717Z,5.35
2022-08-27T15:13:47.957Z,5.57
2022-08-27T15:16:16.171Z,4.70
2022-08-27T15:18:43.653Z,5.13
2022-08-27T15:21:21.322Z,5.00
2022-08-27T15:23:49.410Z,5.45
2022-08-27T15:26:16.873Z,5.40
2022-08-27T15:28:44.288Z,5.15
2022-08-27T15:31:11.643Z,5.15
2022-08-27T15:33:39.000Z,5.43
2022-08-27T15:36:09.680Z,5.15
2022-08-27T15:38:37.557Z,4.85
2022-08-27T15:41:05.040Z,5.05
2022-08-27T15:43:32.288Z,4.72
2022-08-27T15:45:59.656Z,4.90
2022-08-27T15:48:26.940Z,5.00
2022-08-27T15:50:54.186Z,4.90
2022-08-27T15:53:24.849Z,5.50
2022-08-27T15:55:52.292Z,5.68
2022-08-27T15:58:19.438Z,5.60
2022-08-27T16:00:46.792Z,4.97
2022-08-27T16:03:14.882Z,5.25
2022-08-27T16:05:43.442Z,5.82
2022-08-27T16:08:11.737Z,5.43
2022-08-27T16:10:39.126Z,5.90
2022-08-27T16:13:06.290Z,5.15
2022-08-27T16:15:34.940Z,6.80
2022-08-27T16:18:04.477Z,5.63
2022-08-27T16:20:31.847Z,6.30
2022-08-27T16:22:59.116Z,5.72
2022-08-27T16:25:26.572Z,5.93
2022-08-27T16:27:53.849Z,5.47
2022-08-27T16:30:22.794Z,6.75
2022-08-27T16:32:52.173Z,5.93
2022-08-27T16:35:20.670Z,6.20
2022-08-27T16:37:48.007Z,5.95
2022-08-27T16:40:15.724Z,6.18
2022-08-27T16:42:45.354Z,6.65
2022-08-27T16:45:14.367Z,6.63
2022-08-27T16:48:00.361Z,6.38
2022-08-27T16:50:34.303Z,5.93
2022-08-27T16:53:24.318Z,5.82
2022-08-27T16:55:52.046Z,6.32
2022-08-27T16:58:19.209Z,6.05
2022-08-27T17:00:47.084Z,6.28
2022-08-27T17:03:14.589Z,6.07
2022-08-27T17:05:41.800Z,5.90
2022-08-27T17:08:11.656Z,6.13
2022-08-27T17:10:40.303Z,5.75
2022-08-27T17:13:09.213Z,6.25
2022-08-27T17:15:36.473Z,6.55
2022-08-27T17:18:04.104Z,6.18
2022-08-27T17:20:32.505Z,5.97
2022-08-27T17:23:00.968Z,6.22
2022-08-27T17:25:30.213Z,6.00
2022-08-27T17:28:00.237Z,5.47
2022-08-27T17:30:27.893Z,6.43
2022-08-27T17:32:55.260Z,5.90
2022-08-27T17:35:22.421Z,6.03
2022-08-27T17:37:49.658Z,6.07
2022-08-27T17:40:17.006Z,5.32
2022-08-27T17:42:44.202Z,6.00
2022-08-27T17:45:11.598Z,6.57
2022-08-27T17:47:39.052Z,6.00
2022-08-27T17:50:06.444Z,5.78
2022-08-27T17:52:34.079Z,6.20
2022-08-27T17:55:01.293Z,5.97
2022-08-27T17:57:29.544Z,6.90
2022-08-27T18:00:08.734Z,6.20
2022-08-27T18:02:41.928Z,6.05
2022-08-27T18:05:10.681Z,6.38
2022-08-27T18:07:39.991Z,6.65
2022-08-27T18:10:07.676Z,7.35
2022-08-27T18:12:35.003Z,7.65
2022-08-27T18:15:05.341Z,6.50
2022-08-27T18:17:32.880Z,6.22
2022-08-27T18:20:00.169Z,6.00
2022-08-27T18:22:27.823Z,6.00
2022-08-27T18:25:00.211Z,5.80
2022-08-27T18:27:29.704Z,6.28
2022-08-27T18:29:57.902Z,6.40
2022-08-27T18:32:25.628Z,6.47
2022-08-27T18:34:52.933Z,6.18
2022-08-27T18:37:20.208Z,6.90
2022-08-27T18:39:47.504Z,6.38
2022-08-27T18:42:15.066Z,6.30
2022-08-27T18:44:45.717Z,6.00
2022-08-27T18:47:13.207Z,6.05
2022-08-27T18:49:40.518Z,5.80
2022-08-27T18:52:08.843Z,5.88
2022-08-27T18:54:36.162Z,6.55
2022-08-27T18:57:03.321Z,6.43
2022-08-27T18:59:30.539Z,6.28
2022-08-27T19:01:58.013Z,6.75
2022-08-27T19:04:25.830Z,6.53
2022-08-27T19:06:53.017Z,7.30
2022-08-27T19:09:21.119Z,6.80
2022-08-27T19:11:48.350Z,6.35
2022-08-27T19:14:15.537Z,6.82
2022-08-27T19:16:44.723Z,6.57
2022-08-27T19:19:13.218Z,6.80
2022-08-27T19:21:40.535Z,7.10
2022-08-27T19:24:07.988Z,5.93
2022-08-27T19:26:35.421Z,6.03
2022-08-27T19:29:02.719Z,7.53
2022-08-27T19:31:32.166Z,6.95
2022-08-27T19:34:00.388Z,6.85
2022-08-27T19:36:28.183Z,6.72
2022-08-27T19:38:55.557Z,6.88
2022-08-27T19:41:27.218Z,6.72
2022-08-27T19:43:55.141Z,6.57
2022-08-27T19:46:23.832Z,6.43
2022-08-27T19:48:51.089Z,6.47
2022-08-27T19:51:18.753Z,6.20
2022-08-27T19:53:46.003Z,6.25
2022-08-27T19:56:14.271Z,6.05
2022-08-27T19:58:42.561Z,6.88
2022-08-27T20:01:10.166Z,7.20
2022-08-27T20:03:37.396Z,7.05
2022-08-27T20:06:04.877Z,6.95
2022-08-27T20:08:32.108Z,6.78
2022-08-27T20:10:59.373Z,6.40
2022-08-27T20:13:31.074Z,6.65
2022-08-27T20:16:00.454Z,6.72
2022-08-27T20:18:27.792Z,6.68
2022-08-27T20:20:54.970Z,6.72
2022-08-27T20:23:22.247Z,6.55
2022-08-27T20:25:57.813Z,6.50
2022-08-27T20:28:43.335Z,6.60
2022-08-27T20:31:11.119Z,7.28
2022-08-27T20:33:38.335Z,6.38
2022-08-27T20:36:06.678Z,7.05
2022-08-27T20:38:33.967Z,6.47
2022-08-27T20:41:01.317Z,7.47
2022-08-27T20:43:28.551Z,6.65
2022-08-27T20:45:55.915Z,7.13
2022-08-27T20:48:23.114Z,6.95
2022-08-27T20:50:50.295Z,7.22
2022-08-27T20:53:17.716Z,7.22
2022-08-27T20:55:44.982Z,6.13
2022-08-27T20:58:30.994Z,6.72
2022-08-27T21:00:58.818Z,6.57
2022-08-27T21:03:26.084Z,7.38
2022-08-27T21:05:53.475Z,7.72
2022-08-27T21:08:21.726Z,6.90
2022-08-27T21:10:50.570Z,7.60
2022-08-27T21:13:18.205Z,7.95
2022-08-27T21:15:45.415Z,7.72
2022-08-27T21:18:12.952Z,7.70
2022-08-27T21:20:40.806Z,8.20
2022-08-27T21:23:07.995Z,8.15
2022-08-27T21:25:35.564Z,7.40
2022-08-27T21:28:04.631Z,7.65
2022-08-27T21:30:31.900Z,7.80
2022-08-27T21:32:59.140Z,8.63
2022-08-27T21:35:28.405Z,8.15
2022-08-27T21:37:56.378Z,8.18
2022-08-27T21:40:25.203Z,8.02
2022-08-27T21:42:53.121Z,8.45
2022-08-27T21:45:20.349Z,8.13
2022-08-27T21:47:47.808Z,9.05
2022-08-27T21:50:15.249Z,8.90
2022-08-27T21:52:42.488Z,9.27
2022-08-27T21:55:09.971Z,9.52
2022-08-27T21:57:37.287Z,8.80
2022-08-27T22:00:13.740Z,9.02
2022-08-27T22:02:41.085Z,8.88
2022-08-27T22:05:08.971Z,9.80
2022-08-27T22:07:36.206Z,9.18
2022-08-27T22:10:03.649Z,11.05
2022-08-27T22:12:30.796Z,9.73
2022-08-27T22:14:57.949Z,9.18
2022-08-27T22:17:25.333Z,9.70
2022-08-27T22:19:52.513Z,9.27
2022-08-27T22:22:19.708Z,8.85
2022-08-27T22:24:46.962Z,8.52
2022-08-27T22:27:14.132Z,10.07
2022-08-27T22:29:41.277Z,9.48
2022-08-27T22:32:08.627Z,8.45
2022-08-27T22:34:36.236Z,8.30
2022-08-27T22:37:03.662Z,8.07
2022-08-27T22:39:31.413Z,8.93
2022-08-27T22:41:58.579Z,8.02
2022-08-27T22:44:29.260Z,8.75
2022-08-27T22:46:57.094Z,8.35
2022-08-27T22:49:24.379Z,8.15
2022-08-27T22:51:51.547Z,7.40
2022-08-27T22:54:19.009Z,8.32
2022-08-27T22:56:46.205Z,7.45
2022-08-27T22:59:13.426Z,7.50
2022-08-27T23:01:40.807Z,7.20
2022-08-27T23:04:08.270Z,7.63
2022-08-27T23:06:35.728Z,7.65
2022-08-27T23:09:03.064Z,8.10
2022-08-27T23:11:31.793Z,7.93
2022-08-27T23:13:59.513Z,7.32
2022-08-27T23:16:27.327Z,7.53
2022-08-27T23:18:54.966Z,6.88
2022-08-27T23:21:22.149Z,6.72
2022-08-27T23:23:49.532Z,7.10
2022-08-27T23:26:35.306Z,6.20
2022-08-27T23:29:02.593Z,7.22
2022-08-27T23:31:29.835Z,6.32
2022-08-27T23:33:57.479Z,6.43
2022-08-27T23:36:24.820Z,6.22
2022-08-27T23:38:51.972Z,5.63
2022-08-27T23:41:19.142Z,6.32
2022-08-27T23:43:46.680Z,6.15
2022-08-27T23:46:14.078Z,5.60
2022-08-27T23:48:41.345Z,5.25
2022-08-27T23:51:09.363Z,4.93
2022-08-27T23:53:37.723Z,5.85
2022-08-27T23:56:05.031Z,4.85
2022-08-27T23:58:32.904Z,5.03
